Time;durP1;ratioP1;P1;durP2;ratioP2;P2;SDS_P1;SDS_P2;PMS_P1;PMS_P2;Temp;Humidity;BMP_temperature;BMP_pressure;BME280_temperature;BME280_humidity;BME280_pressure;Samples;Min_cycle;Max_cycle;Signal;HPM_P1;HPM_P2
2021/12/27 00:01:54;;;;;;;;;;;3.30;99.90;;;;;;5003402;28;20060;-68
2021/12/27 00:04:21;;;;;;;;;;;3.30;99.90;;;;;;5003561;28;20149;-68
2021/12/27 00:06:50;;;;;;;;;;;3.30;99.90;;;;;;5003052;28;20068;-69
2021/12/27 00:09:17;;;;;;;;;;;3.30;99.90;;;;;;5002673;28;20102;-69
2021/12/27 00:11:44;;;;;;;;;;;3.30;99.90;;;;;;5000981;28;20052;-69
2021/12/27 00:14:11;;;;;;;;;;;3.40;99.90;;;;;;5003417;28;20054;-69
2021/12/27 00:16:38;;;;;;;;;;;3.40;99.90;;;;;;5002865;28;20075;-68
2021/12/27 00:19:05;;;;;;;;;;;3.40;99.90;;;;;;5002907;28;20059;-69
2021/12/27 00:21:32;;;;;;;;;;;3.40;99.90;;;;;;5002957;28;20133;-69
2021/12/27 00:24:01;;;;;;;;;;;3.40;99.90;;;;;;5002878;28;20060;-69
2021/12/27 00:26:28;;;;;;;;;;;3.40;99.90;;;;;;5002823;28;20060;-69
2021/12/27 00:28:55;;;;;;;;;;;3.40;99.90;;;;;;5003005;28;20150;-69
2021/12/27 00:31:22;;;;;;;;;;;3.40;99.90;;;;;;5002721;28;20061;-67
2021/12/27 00:33:49;;;;;;;;;;;3.40;99.90;;;;;;5002921;28;20162;-69
2021/12/27 00:36:16;;;;;;;;;;;3.40;99.90;;;;;;5002629;28;20262;-69
2021/12/27 00:38:44;;;;;;;;;;;3.40;99.90;;;;;;5002374;28;20149;-69
2021/12/27 00:41:12;;;;;;;;;;;3.50;99.90;;;;;;5002662;28;20084;-69
2021/12/27 00:43:39;;;;;;;;;;;3.40;99.90;;;;;;5003138;28;21030;-68
2021/12/27 00:46:06;;;;;;;;;;;3.40;99.90;;;;;;5001741;28;20084;-69
2021/12/27 00:48:34;;;;;;;;;;;3.50;99.90;;;;;;5001985;28;20339;-68
2021/12/27 00:51:01;;;;;;;;;;;3.50;99.90;;;;;;5002731;28;20210;-69
2021/12/27 00:53:28;;;;;;;;;;;3.40;99.90;;;;;;5002771;28;20060;-69
2021/12/27 00:55:55;;;;;;;;;;;3.50;99.90;;;;;;5007003;28;20059;-69
2021/12/27 00:58:24;;;;;;;;;;;3.50;99.90;;;;;;5002745;28;21146;-69
2021/12/27 01:00:51;;;;;;;;;;;3.50;99.90;;;;;;5003081;28;20170;-69
2021/12/27 01:03:20;;;;;;;;;;;3.40;99.90;;;;;;5002788;28;21019;-69
2021/12/27 01:05:47;;;;;;;;;;;3.40;99.90;;;;;;5002060;28;20065;-69
2021/12/27 01:08:14;;;;;;;;;;;3.40;99.90;;;;;;5002263;28;20065;-70
2021/12/27 01:11:00;;;;;;;;;;;3.50;99.90;;;;;;5002666;28;20060;-69
2021/12/27 01:13:40;;;;;;;;;;;3.50;99.90;;;;;;5002128;28;20059;-69
2021/12/27 01:16:13;;;;;;;;;;;3.50;99.90;;;;;;5001874;28;20059;-69
2021/12/27 01:18:43;;;;;;;;;;;3.50;99.90;;;;;;5002648;28;20059;-69
2021/12/27 01:21:10;;;;;;;;;;;3.50;99.90;;;;;;5002710;28;20356;-69
2021/12/27 01:23:37;;;;;;;;;;;3.60;99.90;;;;;;5012363;22;20091;-70
2021/12/27 01:26:04;;;;;;;;;;;3.60;99.90;;;;;;5006491;28;20121;-70
2021/12/27 01:28:34;;;;;;;;;;;3.60;99.90;;;;;;5006094;28;20052;-70
2021/12/27 01:31:01;;;;;;;;;;;3.60;99.90;;;;;;4990870;28;20205;-75
2021/12/27 01:33:28;;;;;;;;;;;3.60;99.90;;;;;;5021428;28;20075;-71
2021/12/27 01:35:56;;;;;;;;;;;3.60;99.90;;;;;;5026424;28;20059;-73
2021/12/27 01:38:23;;;;;;;;;;;3.50;99.90;;;;;;5009521;28;20269;-71
2021/12/27 01:40:51;;;;;;;;;;;3.50;99.90;;;;;;5027473;28;20546;-72
2021/12/27 01:43:20;;;;;;;;;;;3.50;99.90;;;;;;5026450;28;20057;-72
2021/12/27 01:45:53;;;;;;;;;;;3.40;99.90;;;;;;5025054;28;20091;-74
2021/12/27 01:48:23;;;;;;;;;;;3.40;99.90;;;;;;5039242;28;20082;-73
2021/12/27 01:50:51;;;;;;;;;;;3.40;99.90;;;;;;5044032;28;20204;-75
2021/12/27 01:53:18;;;;;;;;;;;3.30;99.90;;;;;;5012600;28;20066;-74
2021/12/27 01:55:46;;;;;;;;;;;3.30;99.90;;;;;;5026360;28;20083;-72
2021/12/27 01:58:13;;;;;;;;;;;3.30;99.90;;;;;;5009449;28;20187;-71
2021/12/27 02:00:44;;;;;;;;;;;3.40;99.90;;;;;;5026452;28;20067;-73
2021/12/27 02:03:13;;;;;;;;;;;3.40;99.90;;;;;;5026300;28;20059;-72
2021/12/27 02:05:40;;;;;;;;;;;3.40;99.90;;;;;;5025812;28;20144;-72
2021/12/27 02:08:08;;;;;;;;;;;3.40;99.90;;;;;;5024974;28;20140;-72
2021/12/27 02:10:35;;;;;;;;;;;3.40;99.90;;;;;;5026084;28;21111;-73
2021/12/27 02:13:02;;;;;;;;;;;3.40;99.90;;;;;;5023538;28;20059;-71
2021/12/27 02:15:29;;;;;;;;;;;3.40;99.90;;;;;;5025220;28;20275;-72
2021/12/27 02:17:57;;;;;;;;;;;3.40;99.90;;;;;;5025627;28;20086;-71
2021/12/27 02:20:26;;;;;;;;;;;3.50;99.90;;;;;;5009035;28;20090;-72
2021/12/27 02:22:55;;;;;;;;;;;3.50;99.90;;;;;;5025227;28;20089;-72
2021/12/27 02:25:23;;;;;;;;;;;3.50;99.90;;;;;;5024922;28;20186;-72
2021/12/27 02:27:50;;;;;;;;;;;3.50;99.90;;;;;;5024844;28;20051;-71
2021/12/27 02:30:18;;;;;;;;;;;3.60;99.90;;;;;;5009462;28;21039;-69
2021/12/27 02:32:47;;;;;;;;;;;3.60;99.90;;;;;;5008873;28;20152;-71
2021/12/27 02:35:15;;;;;;;;;;;3.60;99.90;;;;;;5025179;28;20059;-71
2021/12/27 02:37:44;;;;;;;;;;;3.70;99.90;;;;;;5024828;28;20067;-75
2021/12/27 02:40:12;;;;;;;;;;;3.70;99.90;;;;;;5025080;28;20140;-72
2021/12/27 02:42:59;;;;;;;;;;;3.70;99.90;;;;;;5008051;28;20224;-72
2021/12/27 02:45:27;;;;;;;;;;;3.70;99.90;;;;;;5008331;28;20074;-71
2021/12/27 02:47:54;;;;;;;;;;;3.80;99.90;;;;;;5041735;28;20086;-71
2021/12/27 02:50:22;;;;;;;;;;;3.80;99.90;;;;;;5041701;28;21136;-74
2021/12/27 02:52:51;;;;;;;;;;;3.80;99.90;;;;;;5041274;28;20160;-72
2021/12/27 02:55:19;;;;;;;;;;;3.80;99.90;;;;;;5041665;28;21175;-71
2021/12/27 02:57:46;;;;;;;;;;;3.80;99.90;;;;;;5041183;28;20282;-71
2021/12/27 03:00:15;;;;;;;;;;;3.90;99.90;;;;;;5041422;28;20087;-73
2021/12/27 03:02:44;;;;;;;;;;;3.90;99.90;;;;;;5041178;28;21146;-72
2021/12/27 03:05:12;;;;;;;;;;;3.90;99.90;;;;;;5008605;28;20245;-71
2021/12/27 03:07:39;;;;;;;;;;;4.00;99.90;;;;;;5040807;28;20059;-69
2021/12/27 03:10:09;;;;;;;;;;;3.90;99.90;;;;;;5008822;28;21124;-71
2021/12/27 03:12:38;;;;;;;;;;;4.00;99.90;;;;;;5041538;28;20067;-72
2021/12/27 03:15:06;;;;;;;;;;;4.00;99.90;;;;;;5041317;28;20061;-71
2021/12/27 03:17:33;;;;;;;;;;;4.10;99.90;;;;;;5040624;28;20182;-71
2021/12/27 03:20:01;;;;;;;;;;;4.10;99.90;;;;;;5041160;28;21151;-71
2021/12/27 03:22:28;;;;;;;;;;;4.10;99.90;;;;;;5040698;28;21064;-71
2021/12/27 03:24:55;;;;;;;;;;;4.10;99.90;;;;;;5007693;28;20282;-71
2021/12/27 03:27:24;;;;;;;;;;;4.10;99.90;;;;;;5040940;28;20203;-71
2021/12/27 03:29:51;;;;;;;;;;;4.20;99.90;;;;;;5040231;28;20273;-71
2021/12/27 03:32:21;;;;;;;;;;;4.20;99.90;;;;;;5008398;28;20303;-71
2021/12/27 03:34:55;;;;;;;;;;;4.20;99.90;;;;;;5040947;28;20211;-71
2021/12/27 03:37:22;;;;;;;;;;;4.20;99.90;;;;;;5007538;28;20091;-71
2021/12/27 03:39:50;;;;;;;;;;;4.30;99.90;;;;;;5040577;28;21048;-73
2021/12/27 03:42:17;;;;;;;;;;;4.30;99.90;;;;;;5008393;28;20108;-72
2021/12/27 03:44:46;;;;;;;;;;;4.30;99.90;;;;;;5040234;28;20205;-71
2021/12/27 03:47:13;;;;;;;;;;;4.30;99.90;;;;;;5040134;28;20100;-72
2021/12/27 03:49:41;;;;;;;;;;;4.30;99.90;;;;;;5040084;28;20065;-71
2021/12/27 03:52:08;;;;;;;;;;;4.30;99.90;;;;;;5006915;28;20068;-72
2021/12/27 03:54:35;;;;;;;;;;;4.30;99.90;;;;;;5040615;28;20088;-71
2021/12/27 03:57:02;;;;;;;;;;;4.30;99.90;;;;;;5039552;28;21281;-71
2021/12/27 03:59:49;;;;;;;;;;;4.30;99.90;;;;;;5007345;28;21181;-71
2021/12/27 04:02:18;;;;;;;;;;;4.30;99.90;;;;;;5040503;28;21135;-73
2021/12/27 04:04:45;;;;;;;;;;;4.30;99.90;;;;;;5041139;28;20143;-71
2021/12/27 04:07:12;;;;;;;;;;;4.30;99.90;;;;;;5039730;28;20074;-72
2021/12/27 04:09:40;;;;;;;;;;;4.30;99.90;;;;;;5037699;28;20339;-71
2021/12/27 04:12:08;;;;;;;;;;;4.30;99.90;;;;;;5039581;28;20198;-72
2021/12/27 04:14:35;;;;;;;;;;;4.30;99.90;;;;;;5024750;28;20060;-72
2021/12/27 04:17:03;;;;;;;;;;;4.30;99.90;;;;;;5029488;28;20199;-72
2021/12/27 04:19:31;;;;;;;;;;;4.30;99.90;;;;;;5039722;28;20159;-71
2021/12/27 04:21:59;;;;;;;;;;;4.20;99.90;;;;;;5006374;28;20078;-71
2021/12/27 04:24:26;;;;;;;;;;;4.20;99.90;;;;;;5006113;28;20051;-71
2021/12/27 04:26:55;;;;;;;;;;;4.20;99.90;;;;;;5039802;28;20094;-71
2021/12/27 04:29:22;;;;;;;;;;;4.30;99.90;;;;;;5039434;28;21010;-71
2021/12/27 04:31:49;;;;;;;;;;;4.30;99.90;;;;;;5040190;28;20051;-71
2021/12/27 04:34:16;;;;;;;;;;;4.30;99.90;;;;;;5006659;28;21016;-71
2021/12/27 04:36:44;;;;;;;;;;;4.30;99.90;;;;;;5040068;28;20057;-72
2021/12/27 04:39:12;;;;;;;;;;;4.30;99.90;;;;;;5039865;28;20140;-71
2021/12/27 04:41:39;;;;;;;;;;;4.30;99.90;;;;;;5006946;28;20067;-71
2021/12/27 04:44:06;;;;;;;;;;;4.40;99.90;;;;;;5006383;28;20062;-72
2021/12/27 04:46:33;;;;;;;;;;;4.30;99.90;;;;;;5006109;28;20086;-72
2021/12/27 04:49:01;;;;;;;;;;;4.30;99.90;;;;;;5039375;28;20060;-72
2021/12/27 04:51:28;;;;;;;;;;;4.40;99.90;;;;;;5039553;28;21148;-71
2021/12/27 04:53:57;;;;;;;;;;;4.40;99.90;;;;;;5006354;28;20075;-72
2021/12/27 04:56:24;;;;;;;;;;;4.40;99.90;;;;;;5040047;28;20074;-72
2021/12/27 04:58:51;;;;;;;;;;;4.40;99.90;;;;;;5044479;28;20268;-72
2021/12/27 05:01:18;;;;;;;;;;;4.40;99.90;;;;;;5010771;28;20197;-72
2021/12/27 05:03:45;;;;;;;;;;;4.50;99.90;;;;;;5010286;28;20274;-72
2021/12/27 05:06:13;;;;;;;;;;;4.50;99.90;;;;;;5043103;28;20067;-72
2021/12/27 05:08:40;;;;;;;;;;;4.60;99.90;;;;;;5043459;28;20075;-72
2021/12/27 05:11:10;;;;;;;;;;;4.60;99.90;;;;;;5044154;28;20059;-72
2021/12/27 05:13:37;;;;;;;;;;;4.60;99.90;;;;;;5043358;28;20267;-72
2021/12/27 05:16:05;;;;;;;;;;;4.60;99.90;;;;;;5043313;28;20253;-72
2021/12/27 05:18:32;;;;;;;;;;;4.60;99.90;;;;;;5008709;28;20059;-71
2021/12/27 05:20:59;;;;;;;;;;;4.60;99.90;;;;;;5043497;28;20993;-73
2021/12/27 05:23:27;;;;;;;;;;;4.60;99.90;;;;;;5042722;28;21207;-72
2021/12/27 05:25:54;;;;;;;;;;;4.60;99.90;;;;;;5043522;28;21260;-72
2021/12/27 05:28:22;;;;;;;;;;;4.60;99.90;;;;;;5042807;28;20077;-71
2021/12/27 05:30:51;;;;;;;;;;;4.60;99.90;;;;;;5010619;28;20148;-72
2021/12/27 05:33:18;;;;;;;;;;;4.60;99.90;;;;;;5042563;28;20261;-72
2021/12/27 05:35:45;;;;;;;;;;;4.70;99.90;;;;;;5009220;28;20124;-72
2021/12/27 05:38:13;;;;;;;;;;;4.70;99.90;;;;;;5009249;28;20060;-71
2021/12/27 05:40:40;;;;;;;;;;;4.70;99.90;;;;;;5043388;28;20059;-70
2021/12/27 05:43:07;;;;;;;;;;;4.80;99.90;;;;;;5042789;28;20084;-71
2021/12/27 05:45:37;;;;;;;;;;;4.70;99.90;;;;;;5043394;28;20060;-71
2021/12/27 05:48:04;;;;;;;;;;;4.80;99.90;;;;;;5010212;28;20066;-70
2021/12/27 05:50:31;;;;;;;;;;;4.80;99.90;;;;;;5010223;28;20065;-72
2021/12/27 05:52:58;;;;;;;;;;;4.80;99.90;;;;;;5042956;28;20067;-71
2021/12/27 05:55:26;;;;;;;;;;;4.80;99.90;;;;;;5009505;28;20177;-71
2021/12/27 05:57:53;;;;;;;;;;;4.80;99.90;;;;;;5009785;28;20132;-72
2021/12/27 06:00:20;;;;;;;;;;;4.90;99.90;;;;;;5042666;28;20218;-71
2021/12/27 06:02:51;;;;;;;;;;;4.90;99.90;;;;;;5021737;28;20239;-72
2021/12/27 06:05:18;;;;;;;;;;;4.90;99.90;;;;;;4995598;28;20169;-73
2021/12/27 06:07:46;;;;;;;;;;;4.90;99.90;;;;;;4996474;28;20091;-71
2021/12/27 06:10:13;;;;;;;;;;;5.00;99.90;;;;;;4989255;28;20059;-72
2021/12/27 06:12:41;;;;;;;;;;;5.00;99.90;;;;;;5007780;28;20059;-76
2021/12/27 06:15:09;;;;;;;;;;;5.00;99.90;;;;;;5017593;28;21117;-71
2021/12/27 06:17:37;;;;;;;;;;;5.00;99.90;;;;;;4991982;28;21136;-72
2021/12/27 06:20:07;;;;;;;;;;;5.00;99.90;;;;;;4997743;28;20170;-71
2021/12/27 06:22:34;;;;;;;;;;;5.00;99.90;;;;;;5026433;28;21100;-72
2021/12/27 06:25:03;;;;;;;;;;;5.00;99.90;;;;;;5026422;28;20141;-73
2021/12/27 06:27:31;;;;;;;;;;;4.90;99.90;;;;;;5025788;28;20068;-69
2021/12/27 06:29:58;;;;;;;;;;;4.90;99.90;;;;;;5025698;28;21147;-70
2021/12/27 06:32:25;;;;;;;;;;;4.90;99.90;;;;;;5025410;28;20092;-70
2021/12/27 06:34:52;;;;;;;;;;;4.80;99.90;;;;;;5026228;28;20060;-71
2021/12/27 06:37:21;;;;;;;;;;;4.70;99.90;;;;;;5025425;28;20068;-70
2021/12/27 06:39:48;;;;;;;;;;;4.70;99.90;;;;;;5025698;28;20052;-72
2021/12/27 06:42:15;;;;;;;;;;;4.70;99.90;;;;;;5009588;28;20112;-71
2021/12/27 06:44:42;;;;;;;;;;;4.70;99.90;;;;;;5026284;28;20077;-73
2021/12/27 06:47:09;;;;;;;;;;;4.70;99.90;;;;;;5025736;28;20140;-72
2021/12/27 06:49:37;;;;;;;;;;;4.70;99.90;;;;;;5025642;28;20066;-73
2021/12/27 06:52:04;;;;;;;;;;;4.60;99.90;;;;;;5025805;28;20062;-71
2021/12/27 06:54:33;;;;;;;;;;;4.70;99.90;;;;;;5008449;28;20105;-71
2021/12/27 06:57:01;;;;;;;;;;;4.70;99.90;;;;;;5025891;28;20169;-74
2021/12/27 06:59:28;;;;;;;;;;;4.60;99.90;;;;;;5025182;28;20156;-73
2021/12/27 07:01:55;;;;;;;;;;;4.60;99.90;;;;;;5025125;28;21110;-72
2021/12/27 07:04:23;;;;;;;;;;;4.60;99.90;;;;;;5025000;28;20059;-72
2021/12/27 07:06:50;;;;;;;;;;;4.50;99.90;;;;;;5024605;28;20140;-72
2021/12/27 07:09:17;;;;;;;;;;;4.50;99.90;;;;;;5008136;28;20059;-71
2021/12/27 07:11:46;;;;;;;;;;;4.50;99.90;;;;;;5016046;28;20059;-70
2021/12/27 07:14:13;;;;;;;;;;;4.50;99.90;;;;;;5011061;28;20197;-80
2021/12/27 07:16:40;;;;;;;;;;;4.50;99.90;;;;;;4995393;28;20085;-72
2021/12/27 07:19:07;;;;;;;;;;;4.40;99.90;;;;;;4991817;28;20243;-71
2021/12/27 07:21:35;;;;;;;;;;;4.30;99.90;;;;;;4986864;28;21147;-70
2021/12/27 07:24:02;;;;;;;;;;;4.30;99.90;;;;;;4988063;28;21234;-71
2021/12/27 07:26:29;;;;;;;;;;;4.30;99.90;;;;;;4987740;28;20141;-69
2021/12/27 07:28:58;;;;;;;;;;;4.30;99.90;;;;;;4987478;28;20162;-68
2021/12/27 07:31:25;;;;;;;;;;;4.30;99.90;;;;;;4988897;28;21264;-77
2021/12/27 07:33:52;;;;;;;;;;;4.40;99.90;;;;;;4988448;28;20060;-71
2021/12/27 07:36:19;;;;;;;;;;;4.40;99.90;;;;;;4987279;28;20106;-74
2021/12/27 07:38:46;;;;;;;;;;;4.50;99.90;;;;;;4986974;28;20068;-70
2021/12/27 07:41:13;;;;;;;;;;;4.60;99.90;;;;;;4987031;28;20174;-73
2021/12/27 07:43:40;;;;;;;;;;;4.60;99.90;;;;;;4986853;28;20994;-66
2021/12/27 07:46:09;;;;;;;;;;;4.60;99.90;;;;;;4986685;28;20161;-70
2021/12/27 07:48:36;;;;;;;;;;;4.70;99.90;;;;;;4986546;28;20169;-71
2021/12/27 07:51:03;;;;;;;;;;;4.70;99.90;;;;;;4987705;28;20178;-73
2021/12/27 07:53:30;;;;;;;;;;;4.70;99.90;;;;;;4987042;28;20083;-71
2021/12/27 07:55:58;;;;;;;;;;;4.80;99.90;;;;;;4986781;28;20182;-72
2021/12/27 07:58:25;;;;;;;;;;;4.80;99.90;;;;;;4985918;28;20074;-70
2021/12/27 08:00:54;;;;;;;;;;;4.80;99.90;;;;;;4986864;28;21057;-72
2021/12/27 08:03:22;;;;;;;;;;;4.90;99.90;;;;;;4985982;28;20059;-73
2021/12/27 08:05:50;;;;;;;;;;;4.90;99.90;;;;;;4999498;28;20060;-70
2021/12/27 08:08:17;;;;;;;;;;;5.00;99.90;;;;;;5001228;28;21263;-72
2021/12/27 08:10:44;;;;;;;;;;;5.10;99.90;;;;;;5027662;28;20178;-72
2021/12/27 08:13:12;;;;;;;;;;;5.10;99.90;;;;;;4988186;28;20181;-71
2021/12/27 08:15:39;;;;;;;;;;;5.20;99.90;;;;;;4988207;28;20084;-72
2021/12/27 08:18:06;;;;;;;;;;;5.30;99.90;;;;;;4988296;28;20067;-72
2021/12/27 08:20:35;;;;;;;;;;;5.40;99.90;;;;;;5002588;28;20741;-72
2021/12/27 08:23:02;;;;;;;;;;;5.40;99.90;;;;;;5022840;28;21169;-71
2021/12/27 08:25:29;;;;;;;;;;;5.50;99.90;;;;;;5022597;28;21090;-72
2021/12/27 08:27:56;;;;;;;;;;;5.50;99.90;;;;;;5020419;28;21173;-71
2021/12/27 08:30:24;;;;;;;;;;;5.50;99.90;;;;;;4998930;28;21031;-73
2021/12/27 08:32:53;;;;;;;;;;;5.60;99.90;;;;;;5003193;28;20060;-73
2021/12/27 08:35:20;;;;;;;;;;;5.60;99.90;;;;;;4997630;28;20082;-73
2021/12/27 08:37:49;;;;;;;;;;;5.60;99.90;;;;;;5023469;28;20076;-73
2021/12/27 08:40:16;;;;;;;;;;;5.60;99.90;;;;;;5023622;28;21162;-74
2021/12/27 08:42:43;;;;;;;;;;;5.70;99.90;;;;;;5005850;28;20170;-72
2021/12/27 08:45:10;;;;;;;;;;;5.70;99.90;;;;;;5006204;28;20059;-76
2021/12/27 08:47:38;;;;;;;;;;;5.70;99.90;;;;;;5006806;28;20153;-75
2021/12/27 08:50:05;;;;;;;;;;;5.70;99.90;;;;;;5039679;28;20208;-73
2021/12/27 08:52:33;;;;;;;;;;;5.70;99.90;;;;;;5039383;28;20050;-73
2021/12/27 08:55:03;;;;;;;;;;;5.70;99.90;;;;;;5006922;28;20148;-74
2021/12/27 08:57:30;;;;;;;;;;;5.80;99.90;;;;;;5039615;28;20269;-74
2021/12/27 08:59:57;;;;;;;;;;;5.80;99.90;;;;;;5006371;28;20140;-77
2021/12/27 09:02:24;;;;;;;;;;;5.90;99.90;;;;;;5030218;28;20134;-74
2021/12/27 09:04:51;;;;;;;;;;;6.00;99.90;;;;;;5027017;28;20181;-73
2021/12/27 09:07:18;;;;;;;;;;;6.10;99.90;;;;;;5029000;28;21050;-72
2021/12/27 09:09:46;;;;;;;;;;;6.10;99.90;;;;;;5032677;28;20066;-72
2021/12/27 09:12:14;;;;;;;;;;;6.10;99.90;;;;;;5041208;28;20060;-72
2021/12/27 09:14:41;;;;;;;;;;;6.10;99.90;;;;;;5006627;28;20060;-72
2021/12/27 09:17:08;;;;;;;;;;;6.10;99.90;;;;;;5039211;28;21246;-72
2021/12/27 09:19:36;;;;;;;;;;;6.10;99.90;;;;;;5038733;28;20057;-72
2021/12/27 09:22:03;;;;;;;;;;;6.20;99.90;;;;;;5039325;28;20051;-72
2021/12/27 09:24:31;;;;;;;;;;;6.10;99.90;;;;;;5006086;28;20153;-72
2021/12/27 09:26:59;;;;;;;;;;;6.20;99.90;;;;;;5039750;28;20191;-72
2021/12/27 09:29:27;;;;;;;;;;;6.20;99.90;;;;;;5039389;28;20067;-72
2021/12/27 09:31:55;;;;;;;;;;;6.20;99.90;;;;;;5006634;28;21132;-72
2021/12/27 09:34:22;;;;;;;;;;;6.30;99.90;;;;;;5039530;28;20128;-72
2021/12/27 09:36:49;;;;;;;;;;;6.30;99.90;;;;;;5038380;28;20278;-72
2021/12/27 09:39:16;;;;;;;;;;;6.40;99.90;;;;;;5006527;28;20141;-72
2021/12/27 09:41:43;;;;;;;;;;;6.50;99.90;;;;;;5005880;28;20060;-72
2021/12/27 09:44:10;;;;;;;;;;;6.60;99.90;;;;;;5040654;28;20088;-72
2021/12/27 09:46:39;;;;;;;;;;;6.70;99.90;;;;;;5042184;28;20153;-72
2021/12/27 09:49:08;;;;;;;;;;;6.80;99.90;;;;;;5008897;28;21183;-72
2021/12/27 09:51:37;;;;;;;;;;;6.80;99.90;;;;;;5042603;28;20132;-72
2021/12/27 09:54:04;;;;;;;;;;;7.00;99.90;;;;;;5042424;28;20253;-72
2021/12/27 09:56:31;;;;;;;;;;;7.00;99.90;;;;;;5008219;28;20275;-72
2021/12/27 09:58:58;;;;;;;;;;;7.20;99.90;;;;;;5010968;28;21236;-73
2021/12/27 10:01:26;;;;;;;;;;;7.40;99.90;;;;;;5044262;28;20148;-75
2021/12/27 10:03:55;;;;;;;;;;;7.60;99.90;;;;;;5043676;28;21059;-73
2021/12/27 10:06:23;;;;;;;;;;;7.90;99.90;;;;;;5043977;28;20060;-73
2021/12/27 10:08:52;;;;;;;;;;;8.00;99.90;;;;;;5044034;28;21210;-74
2021/12/27 10:11:20;;;;;;;;;;;8.00;99.90;;;;;;5037747;28;20068;-73
2021/12/27 10:13:58;;;;;;;;;;;8.10;99.90;;;;;;5040422;28;20060;-76
2021/12/27 10:16:25;;;;;;;;;;;8.10;99.90;;;;;;5029843;28;20060;-74
2021/12/27 10:18:58;;;;;;;;;;;8.10;99.90;;;;;;5013573;28;20113;-74
2021/12/27 10:21:25;;;;;;;;;;;8.20;99.90;;;;;;5010800;28;20147;-73
2021/12/27 10:24:01;;;;;;;;;;;8.20;99.90;;;;;;4989963;28;20059;-76
2021/12/27 10:26:29;;;;;;;;;;;8.20;99.90;;;;;;4991634;28;20199;-73
2021/12/27 10:29:06;;;;;;;;;;;8.30;99.90;;;;;;4988661;28;20061;-73
2021/12/27 10:31:49;;;;;;;;;;;8.40;99.90;;;;;;4989266;28;20075;-74
2021/12/27 10:34:18;;;;;;;;;;;8.40;99.90;;;;;;4989462;28;21260;-73
2021/12/27 10:36:58;;;;;;;;;;;8.60;99.90;;;;;;4988402;28;21149;-73
2021/12/27 10:39:28;;;;;;;;;;;8.60;99.90;;;;;;4988554;28;20073;-73
2021/12/27 10:42:06;;;;;;;;;;;8.60;99.90;;;;;;4989075;28;20067;-75
2021/12/27 10:44:35;;;;;;;;;;;8.40;99.90;;;;;;4988351;28;20068;-73
2021/12/27 10:47:02;;;;;;;;;;;8.50;99.90;;;;;;4988674;28;20185;-74
2021/12/27 10:49:44;;;;;;;;;;;8.70;99.90;;;;;;4988184;28;20051;-74
2021/12/27 10:52:13;;;;;;;;;;;8.90;99.90;;;;;;4988524;28;20073;-73
2021/12/27 10:54:40;;;;;;;;;;;10.00;99.90;;;;;;4987821;28;21155;-75
2021/12/27 10:57:07;;;;;;;;;;;11.70;99.90;;;;;;4987701;28;21051;-73
2021/12/27 10:59:34;;;;;;;;;;;11.40;99.90;;;;;;4988186;28;20148;-76
2021/12/27 11:02:08;;;;;;;;;;;11.00;99.90;;;;;;4988517;28;20060;-73
2021/12/27 11:04:35;;;;;;;;;;;10.40;99.90;;;;;;4989144;28;20174;-73
2021/12/27 11:07:03;;;;;;;;;;;10.00;99.90;;;;;;4989430;28;20059;-73
2021/12/27 11:09:32;;;;;;;;;;;9.50;99.90;;;;;;4989405;28;20988;-74
2021/12/27 11:12:00;;;;;;;;;;;9.40;99.90;;;;;;4989346;28;20496;-73
2021/12/27 11:14:27;;;;;;;;;;;9.30;99.90;;;;;;4989977;28;21128;-75
2021/12/27 11:16:54;;;;;;;;;;;9.30;99.90;;;;;;4987447;28;20238;-72
2021/12/27 11:19:21;;;;;;;;;;;9.20;99.90;;;;;;4988033;28;21066;-74
2021/12/27 11:21:49;;;;;;;;;;;9.10;99.90;;;;;;4987948;28;21130;-72
2021/12/27 11:24:18;;;;;;;;;;;9.00;99.90;;;;;;4990993;28;20075;-72
2021/12/27 11:26:47;;;;;;;;;;;9.00;99.90;;;;;;5032382;28;20060;-73
2021/12/27 11:29:15;;;;;;;;;;;9.00;99.90;;;;;;5007205;28;20066;-72
2021/12/27 11:31:43;;;;;;;;;;;9.00;99.90;;;;;;5041167;28;20060;-72
2021/12/27 11:34:12;;;;;;;;;;;9.00;99.90;;;;;;5040927;28;20058;-72
2021/12/27 11:36:44;;;;;;;;;;;9.10;99.90;;;;;;5007216;28;20220;-71
2021/12/27 11:39:18;;;;;;;;;;;9.10;99.90;;;;;;5040941;28;20051;-72
2021/12/27 11:41:56;;;;;;;;;;;9.20;99.90;;;;;;5006745;28;20067;-69
2021/12/27 11:44:34;;;;;;;;;;;9.20;99.90;;;;;;4996559;28;20076;-72
2021/12/27 11:47:01;;;;;;;;;;;9.20;99.90;;;;;;5040605;28;20068;-72
2021/12/27 11:49:36;;;;;;;;;;;9.20;99.90;;;;;;5031350;28;20070;-72
2021/12/27 11:52:15;;;;;;;;;;;9.20;99.90;;;;;;4995682;28;20051;-74
2021/12/27 11:54:49;;;;;;;;;;;9.10;99.90;;;;;;4988383;28;20067;-74
2021/12/27 11:57:30;;;;;;;;;;;9.10;99.90;;;;;;4986651;28;20999;-70
2021/12/27 11:59:59;;;;;;;;;;;9.10;99.90;;;;;;4985550;28;20060;-71
2021/12/27 12:02:27;;;;;;;;;;;9.10;99.90;;;;;;4989263;28;20075;-71
2021/12/27 12:04:55;;;;;;;;;;;9.00;99.90;;;;;;4987804;28;20060;-71
2021/12/27 12:07:41;;;;;;;;;;;9.00;99.90;;;;;;4988343;28;20060;-69
2021/12/27 12:10:14;;;;;;;;;;;9.00;99.90;;;;;;4992117;28;20174;-72
2021/12/27 12:12:41;;;;;;;;;;;9.00;99.90;;;;;;5006679;28;21171;-71
2021/12/27 12:15:10;;;;;;;;;;;9.00;99.90;;;;;;5027726;28;20073;-74
2021/12/27 12:17:38;;;;;;;;;;;9.00;99.90;;;;;;5026289;28;21060;-73
2021/12/27 12:20:06;;;;;;;;;;;9.00;99.90;;;;;;5008807;28;20085;-74
2021/12/27 12:22:38;;;;;;;;;;;9.00;99.90;;;;;;5027878;28;20217;-73
2021/12/27 12:25:06;;;;;;;;;;;9.00;99.90;;;;;;5007074;28;20058;-74
2021/12/27 12:27:33;;;;;;;;;;;9.10;99.90;;;;;;5023094;28;20059;-74
2021/12/27 12:30:00;;;;;;;;;;;9.20;99.90;;;;;;5006298;28;20059;-74
2021/12/27 12:32:29;;;;;;;;;;;9.30;99.90;;;;;;5029205;28;20051;-74
2021/12/27 12:34:56;;;;;;;;;;;9.30;99.90;;;;;;5013032;28;20149;-74
2021/12/27 12:37:23;;;;;;;;;;;9.20;99.90;;;;;;5030284;28;20076;-75
2021/12/27 12:39:51;;;;;;;;;;;9.20;99.90;;;;;;5035587;28;20068;-74
2021/12/27 12:42:19;;;;;;;;;;;9.10;99.90;;;;;;5039543;28;21014;-73
2021/12/27 12:44:51;;;;;;;;;;;9.10;99.90;;;;;;5006082;28;20212;-73
2021/12/27 12:47:18;;;;;;;;;;;9.10;99.90;;;;;;5039287;28;20140;-74
2021/12/27 12:49:47;;;;;;;;;;;9.10;99.90;;;;;;5039543;28;21217;-74
2021/12/27 12:52:15;;;;;;;;;;;9.20;99.90;;;;;;5038836;28;21091;-74
2021/12/27 12:54:42;;;;;;;;;;;9.20;99.90;;;;;;5040061;28;20064;-73
2021/12/27 12:57:11;;;;;;;;;;;9.20;99.90;;;;;;5005913;28;21099;-76
2021/12/27 12:59:39;;;;;;;;;;;9.20;99.90;;;;;;5038747;28;20076;-75
2021/12/27 13:02:08;;;;;;;;;;;9.10;99.90;;;;;;5040057;28;20051;-73
2021/12/27 13:04:39;;;;;;;;;;;9.10;99.90;;;;;;5039995;28;20296;-74
2021/12/27 13:07:08;;;;;;;;;;;8.90;99.90;;;;;;5039992;28;20068;-74
2021/12/27 13:09:46;;;;;;;;;;;8.90;99.90;;;;;;5006031;28;20200;-73
2021/12/27 13:12:14;;;;;;;;;;;8.80;99.90;;;;;;5025964;28;20186;-74
2021/12/27 13:14:41;;;;;;;;;;;8.80;99.90;;;;;;5006048;28;20173;-74
2021/12/27 13:17:12;;;;;;;;;;;8.70;99.90;;;;;;5005529;28;20064;-74
2021/12/27 13:19:54;;;;;;;;;;;8.70;99.90;;;;;;5008161;28;20058;-74
2021/12/27 13:22:36;;;;;;;;;;;8.70;99.90;;;;;;5008042;28;21105;-76
2021/12/27 13:25:07;;;;;;;;;;;8.70;99.90;;;;;;5009945;28;21131;-73
2021/12/27 13:27:34;;;;;;;;;;;8.60;99.90;;;;;;5009977;28;20074;-72
2021/12/27 13:30:06;;;;;;;;;;;8.60;99.90;;;;;;5009850;28;21099;-73
2021/12/27 13:32:33;;;;;;;;;;;8.60;99.90;;;;;;5009533;28;21126;-70
2021/12/27 13:35:00;;;;;;;;;;;8.60;99.90;;;;;;5025770;28;20076;-71
2021/12/27 13:37:27;;;;;;;;;;;8.50;99.90;;;;;;5026050;28;21126;-71
2021/12/27 13:40:03;;;;;;;;;;;8.50;99.90;;;;;;5025500;28;20068;-71
2021/12/27 13:42:32;;;;;;;;;;;8.40;99.90;;;;;;5008707;28;20078;-71
2021/12/27 13:45:07;;;;;;;;;;;8.40;99.90;;;;;;5006698;28;21156;-71
2021/12/27 13:47:35;;;;;;;;;;;8.40;99.90;;;;;;5037440;28;20084;-72
2021/12/27 13:50:02;;;;;;;;;;;8.40;99.90;;;;;;5043033;28;20076;-71
2021/12/27 13:52:30;;;;;;;;;;;8.40;99.90;;;;;;5042701;28;20076;-72
2021/12/27 13:54:58;;;;;;;;;;;8.40;99.90;;;;;;5042816;28;21246;-69
2021/12/27 13:57:33;;;;;;;;;;;8.40;99.90;;;;;;5042844;28;20075;-72
2021/12/27 14:00:03;;;;;;;;;;;8.50;99.90;;;;;;5011239;28;20058;-71
2021/12/27 14:02:37;;;;;;;;;;;8.50;99.90;;;;;;5044704;28;20152;-71
2021/12/27 14:05:07;;;;;;;;;;;8.50;99.90;;;;;;5009951;28;21185;-72
2021/12/27 14:07:34;;;;;;;;;;;8.50;99.90;;;;;;5001234;28;20203;-73
2021/12/27 14:10:01;;;;;;;;;;;8.50;99.90;;;;;;5002301;28;20092;-72
2021/12/27 14:12:30;;;;;;;;;;;8.50;99.90;;;;;;5008157;28;20091;-72
2021/12/27 14:15:01;;;;;;;;;;;8.50;99.90;;;;;;5044372;28;20068;-73
2021/12/27 14:17:30;;;;;;;;;;;8.60;99.90;;;;;;5010508;28;20084;-73
2021/12/27 14:20:05;;;;;;;;;;;8.60;99.90;;;;;;5043838;28;20216;-72
2021/12/27 14:22:38;;;;;;;;;;;8.60;99.90;;;;;;5044031;28;20060;-73
2021/12/27 14:25:06;;;;;;;;;;;8.60;99.90;;;;;;5044456;28;20075;-73
2021/12/27 14:27:34;;;;;;;;;;;8.60;99.90;;;;;;5044038;28;20276;-72
2021/12/27 14:30:09;;;;;;;;;;;8.60;99.90;;;;;;5004569;28;20084;-72
2021/12/27 14:32:38;;;;;;;;;;;8.60;99.90;;;;;;5002079;28;20122;-73
2021/12/27 14:35:16;;;;;;;;;;;8.50;99.90;;;;;;5023941;28;20111;-73
2021/12/27 14:37:43;;;;;;;;;;;8.60;99.90;;;;;;5006606;28;20077;-72